sensor_id;sensor_type;location;lat;lon;timestamp;temperature;humidity
74101;DHT22;62462;52.530;21.682;2023-05-19T00:01:11;14.00;74.00
74101;DHT22;62462;52.530;21.682;2023-05-19T00:03:51;14.00;74.10
74101;DHT22;62462;52.530;21.682;2023-05-19T00:06:23;13.90;74.40
74101;DHT22;62462;52.530;21.682;2023-05-19T00:08:55;13.90;74.40
74101;DHT22;62462;52.530;21.682;2023-05-19T00:11:22;13.80;74.70
74101;DHT22;62462;52.530;21.682;2023-05-19T00:13:48;13.80;74.80
74101;DHT22;62462;52.530;21.682;2023-05-19T00:16:15;13.80;74.80
74101;DHT22;62462;52.530;21.682;2023-05-19T00:18:41;13.80;75.10
74101;DHT22;62462;52.530;21.682;2023-05-19T00:21:08;13.90;75.00
74101;DHT22;62462;52.530;21.682;2023-05-19T00:23:33;13.90;75.00
74101;DHT22;62462;52.530;21.682;2023-05-19T00:25:59;13.90;74.90
74101;DHT22;62462;52.530;21.682;2023-05-19T00:28:25;13.90;74.90
74101;DHT22;62462;52.530;21.682;2023-05-19T00:30:51;13.80;75.80
74101;DHT22;62462;52.530;21.682;2023-05-19T00:33:16;13.80;75.20
74101;DHT22;62462;52.530;21.682;2023-05-19T00:35:42;13.80;75.20
74101;DHT22;62462;52.530;21.682;2023-05-19T00:38:08;13.90;75.30
74101;DHT22;62462;52.530;21.682;2023-05-19T00:40:34;13.90;75.30
74101;DHT22;62462;52.530;21.682;2023-05-19T00:43:03;13.90;75.10
74101;DHT22;62462;52.530;21.682;2023-05-19T00:45:33;13.90;75.30
74101;DHT22;62462;52.530;21.682;2023-05-19T00:47:59;13.90;75.20
74101;DHT22;62462;52.530;21.682;2023-05-19T00:50:25;13.80;75.30
74101;DHT22;62462;52.530;21.682;2023-05-19T00:52:53;13.80;75.70
74101;DHT22;62462;52.530;21.682;2023-05-19T00:55:22;13.80;75.90
74101;DHT22;62462;52.530;21.682;2023-05-19T00:57:50;13.80;75.80
74101;DHT22;62462;52.530;21.682;2023-05-19T01:00:17;13.80;75.60
74101;DHT22;62462;52.530;21.682;2023-05-19T01:02:42;13.90;75.50
74101;DHT22;62462;52.530;21.682;2023-05-19T01:05:09;13.90;75.40
74101;DHT22;62462;52.530;21.682;2023-05-19T01:07:35;13.90;75.60
74101;DHT22;62462;52.530;21.682;2023-05-19T01:10:01;13.90;75.30
74101;DHT22;62462;52.530;21.682;2023-05-19T01:12:27;13.90;75.30
74101;DHT22;62462;52.530;21.682;2023-05-19T01:14:54;13.90;75.30
74101;DHT22;62462;52.530;21.682;2023-05-19T01:20:15;13.80;75.50
74101;DHT22;62462;52.530;21.682;2023-05-19T01:31:16;13.70;75.90
74101;DHT22;62462;52.530;21.682;2023-05-19T01:33:44;13.70;75.80
74101;DHT22;62462;52.530;21.682;2023-05-19T01:36:11;13.70;75.80
74101;DHT22;62462;52.530;21.682;2023-05-19T01:38:39;13.70;75.80
74101;DHT22;62462;52.530;21.682;2023-05-19T01:41:05;13.80;75.80
74101;DHT22;62462;52.530;21.682;2023-05-19T01:43:32;13.80;75.80
74101;DHT22;62462;52.530;21.682;2023-05-19T01:46:00;13.80;75.80
74101;DHT22;62462;52.530;21.682;2023-05-19T01:48:27;13.70;75.90
74101;DHT22;62462;52.530;21.682;2023-05-19T01:50:54;13.70;76.00
74101;DHT22;62462;52.530;21.682;2023-05-19T01:53:22;13.70;76.10
74101;DHT22;62462;52.530;21.682;2023-05-19T01:55:53;13.70;76.10
74101;DHT22;62462;52.530;21.682;2023-05-19T01:58:21;13.70;76.00
74101;DHT22;62462;52.530;21.682;2023-05-19T02:11:55;13.50;76.50
74101;DHT22;62462;52.530;21.682;2023-05-19T02:14:40;13.50;76.50
74101;DHT22;62462;52.530;21.682;2023-05-19T02:17:07;13.60;76.40
74101;DHT22;62462;52.530;21.682;2023-05-19T02:19:37;13.60;76.20
74101;DHT22;62462;52.530;21.682;2023-05-19T02:22:04;13.60;76.20
74101;DHT22;62462;52.530;21.682;2023-05-19T02:24:29;13.60;76.10
74101;DHT22;62462;52.530;21.682;2023-05-19T02:26:55;13.60;76.00
74101;DHT22;62462;52.530;21.682;2023-05-19T02:29:21;13.70;76.00
74101;DHT22;62462;52.530;21.682;2023-05-19T02:31:47;13.70;76.00
74101;DHT22;62462;52.530;21.682;2023-05-19T02:34:13;13.60;76.10
74101;DHT22;62462;52.530;21.682;2023-05-19T02:36:40;13.60;76.00
74101;DHT22;62462;52.530;21.682;2023-05-19T02:39:08;13.60;75.90
74101;DHT22;62462;52.530;21.682;2023-05-19T02:41:34;13.60;76.00
74101;DHT22;62462;52.530;21.682;2023-05-19T02:43:59;13.70;76.00
74101;DHT22;62462;52.530;21.682;2023-05-19T02:46:25;13.60;76.00
74101;DHT22;62462;52.530;21.682;2023-05-19T02:48:51;13.70;76.10
74101;DHT22;62462;52.530;21.682;2023-05-19T02:51:17;13.70;76.20
74101;DHT22;62462;52.530;21.682;2023-05-19T02:53:43;13.70;76.20
74101;DHT22;62462;52.530;21.682;2023-05-19T02:56:09;13.70;76.20
74101;DHT22;62462;52.530;21.682;2023-05-19T02:58:34;13.60;76.10
74101;DHT22;62462;52.530;21.682;2023-05-19T03:01:00;13.60;76.20
74101;DHT22;62462;52.530;21.682;2023-05-19T03:03:26;13.60;76.40
74101;DHT22;62462;52.530;21.682;2023-05-19T03:05:53;13.60;76.30
74101;DHT22;62462;52.530;21.682;2023-05-19T03:08:19;13.60;76.40
74101;DHT22;62462;52.530;21.682;2023-05-19T03:10:45;13.50;76.40
74101;DHT22;62462;52.530;21.682;2023-05-19T03:13:11;13.60;76.60
74101;DHT22;62462;52.530;21.682;2023-05-19T03:15:37;13.60;76.60
74101;DHT22;62462;52.530;21.682;2023-05-19T03:18:03;13.60;76.60
74101;DHT22;62462;52.530;21.682;2023-05-19T03:20:29;13.60;76.50
74101;DHT22;62462;52.530;21.682;2023-05-19T03:22:56;13.60;76.60
74101;DHT22;62462;52.530;21.682;2023-05-19T03:25:22;13.60;76.70
74101;DHT22;62462;52.530;21.682;2023-05-19T03:27:47;13.60;76.60
74101;DHT22;62462;52.530;21.682;2023-05-19T03:30:13;13.60;76.80
74101;DHT22;62462;52.530;21.682;2023-05-19T03:32:39;13.60;76.80
74101;DHT22;62462;52.530;21.682;2023-05-19T03:35:05;13.60;76.80
74101;DHT22;62462;52.530;21.682;2023-05-19T03:37:31;13.60;76.80
74101;DHT22;62462;52.530;21.682;2023-05-19T03:40:01;13.60;76.80
74101;DHT22;62462;52.530;21.682;2023-05-19T03:42:27;13.60;76.80
74101;DHT22;62462;52.530;21.682;2023-05-19T03:44:52;13.60;76.80
74101;DHT22;62462;52.530;21.682;2023-05-19T03:47:18;13.60;76.80
74101;DHT22;62462;52.530;21.682;2023-05-19T03:49:44;13.60;76.70
74101;DHT22;62462;52.530;21.682;2023-05-19T03:52:10;13.60;76.80
74101;DHT22;62462;52.530;21.682;2023-05-19T03:54:37;13.50;77.00
74101;DHT22;62462;52.530;21.682;2023-05-19T03:57:04;13.50;77.10
74101;DHT22;62462;52.530;21.682;2023-05-19T03:59:30;13.50;77.20
74101;DHT22;62462;52.530;21.682;2023-05-19T04:01:56;13.50;77.20
74101;DHT22;62462;52.530;21.682;2023-05-19T04:04:22;13.40;77.30
74101;DHT22;62462;52.530;21.682;2023-05-19T04:06:48;13.40;77.40
74101;DHT22;62462;52.530;21.682;2023-05-19T04:09:15;13.40;77.60
74101;DHT22;62462;52.530;21.682;2023-05-19T04:11:41;13.40;77.70
74101;DHT22;62462;52.530;21.682;2023-05-19T04:14:08;13.40;77.70
74101;DHT22;62462;52.530;21.682;2023-05-19T04:16:34;13.40;77.70
74101;DHT22;62462;52.530;21.682;2023-05-19T04:19:00;13.40;77.80
74101;DHT22;62462;52.530;21.682;2023-05-19T04:21:26;13.40;77.80
74101;DHT22;62462;52.530;21.682;2023-05-19T04:23:52;13.40;77.90
74101;DHT22;62462;52.530;21.682;2023-05-19T04:26:18;13.40;77.90
74101;DHT22;62462;52.530;21.682;2023-05-19T04:28:46;13.40;77.80
74101;DHT22;62462;52.530;21.682;2023-05-19T04:31:15;13.40;77.80
74101;DHT22;62462;52.530;21.682;2023-05-19T04:33:41;13.50;77.80
74101;DHT22;62462;52.530;21.682;2023-05-19T04:36:07;13.50;77.90
74101;DHT22;62462;52.530;21.682;2023-05-19T04:38:35;13.50;77.70
74101;DHT22;62462;52.530;21.682;2023-05-19T04:41:07;13.50;77.60
74101;DHT22;62462;52.530;21.682;2023-05-19T04:43:39;13.50;77.80
74101;DHT22;62462;52.530;21.682;2023-05-19T04:46:09;13.50;77.80
74101;DHT22;62462;52.530;21.682;2023-05-19T04:48:35;13.50;77.80
74101;DHT22;62462;52.530;21.682;2023-05-19T04:51:02;13.50;77.80
74101;DHT22;62462;52.530;21.682;2023-05-19T04:53:28;13.50;77.60
74101;DHT22;62462;52.530;21.682;2023-05-19T04:55:54;13.60;77.70
74101;DHT22;62462;52.530;21.682;2023-05-19T04:58:21;13.60;77.60
74101;DHT22;62462;52.530;21.682;2023-05-19T05:00:50;13.60;77.50
74101;DHT22;62462;52.530;21.682;2023-05-19T05:03:17;13.60;77.60
74101;DHT22;62462;52.530;21.682;2023-05-19T05:05:43;13.60;77.70
74101;DHT22;62462;52.530;21.682;2023-05-19T05:08:10;13.60;77.90
74101;DHT22;62462;52.530;21.682;2023-05-19T05:10:35;13.70;77.80
74101;DHT22;62462;52.530;21.682;2023-05-19T05:13:01;13.70;77.70
74101;DHT22;62462;52.530;21.682;2023-05-19T05:15:27;13.80;77.70
74101;DHT22;62462;52.530;21.682;2023-05-19T05:17:54;13.80;77.60
74101;DHT22;62462;52.530;21.682;2023-05-19T05:20:21;13.80;77.60
74101;DHT22;62462;52.530;21.682;2023-05-19T05:22:47;13.90;77.70
74101;DHT22;62462;52.530;21.682;2023-05-19T05:25:13;14.00;77.70
74101;DHT22;62462;52.530;21.682;2023-05-19T05:27:39;14.00;77.60
74101;DHT22;62462;52.530;21.682;2023-05-19T05:30:05;14.00;77.60
74101;DHT22;62462;52.530;21.682;2023-05-19T05:32:31;14.00;77.70
74101;DHT22;62462;52.530;21.682;2023-05-19T05:34:57;14.00;77.60
74101;DHT22;62462;52.530;21.682;2023-05-19T05:37:23;14.00;77.40
74101;DHT22;62462;52.530;21.682;2023-05-19T05:39:49;14.10;77.50
74101;DHT22;62462;52.530;21.682;2023-05-19T05:42:14;14.10;77.40
74101;DHT22;62462;52.530;21.682;2023-05-19T05:44:40;14.10;77.50
74101;DHT22;62462;52.530;21.682;2023-05-19T05:47:07;14.10;77.40
74101;DHT22;62462;52.530;21.682;2023-05-19T05:49:33;14.20;77.40
74101;DHT22;62462;52.530;21.682;2023-05-19T05:52:03;14.20;77.20
74101;DHT22;62462;52.530;21.682;2023-05-19T05:54:29;14.30;77.00
74101;DHT22;62462;52.530;21.682;2023-05-19T05:56:55;14.20;77.00
74101;DHT22;62462;52.530;21.682;2023-05-19T05:59:21;14.20;77.00
74101;DHT22;62462;52.530;21.682;2023-05-19T06:01:47;14.20;77.00
74101;DHT22;62462;52.530;21.682;2023-05-19T06:04:13;14.20;77.00
74101;DHT22;62462;52.530;21.682;2023-05-19T06:06:38;14.30;76.70
74101;DHT22;62462;52.530;21.682;2023-05-19T06:09:04;14.20;76.90
74101;DHT22;62462;52.530;21.682;2023-05-19T06:11:30;14.20;77.00
74101;DHT22;62462;52.530;21.682;2023-05-19T06:13:56;14.20;77.00
74101;DHT22;62462;52.530;21.682;2023-05-19T06:16:21;14.30;76.70
74101;DHT22;62462;52.530;21.682;2023-05-19T06:18:47;14.30;76.80
74101;DHT22;62462;52.530;21.682;2023-05-19T06:21:13;14.30;76.70
74101;DHT22;62462;52.530;21.682;2023-05-19T06:23:39;14.30;76.50
74101;DHT22;62462;52.530;21.682;2023-05-19T06:26:05;14.30;76.60
74101;DHT22;62462;52.530;21.682;2023-05-19T06:28:32;14.30;76.60
74101;DHT22;62462;52.530;21.682;2023-05-19T06:30:58;14.30;76.80
74101;DHT22;62462;52.530;21.682;2023-05-19T06:33:25;14.30;76.70
74101;DHT22;62462;52.530;21.682;2023-05-19T06:35:50;14.30;76.60
74101;DHT22;62462;52.530;21.682;2023-05-19T06:38:16;14.40;76.70
74101;DHT22;62462;52.530;21.682;2023-05-19T06:40:42;14.40;76.40
74101;DHT22;62462;52.530;21.682;2023-05-19T06:43:08;14.40;76.50
74101;DHT22;62462;52.530;21.682;2023-05-19T06:45:33;14.50;76.40
74101;DHT22;62462;52.530;21.682;2023-05-19T06:47:59;14.50;76.30
74101;DHT22;62462;52.530;21.682;2023-05-19T06:50:25;14.50;76.40
74101;DHT22;62462;52.530;21.682;2023-05-19T06:52:51;14.60;76.30
74101;DHT22;62462;52.530;21.682;2023-05-19T06:55:18;14.60;76.20
74101;DHT22;62462;52.530;21.682;2023-05-19T06:57:43;14.60;76.00
74101;DHT22;62462;52.530;21.682;2023-05-19T07:00:10;14.60;76.00
74101;DHT22;62462;52.530;21.682;2023-05-19T07:02:38;14.70;76.20
74101;DHT22;62462;52.530;21.682;2023-05-19T07:05:04;14.80;76.00
74101;DHT22;62462;52.530;21.682;2023-05-19T07:07:30;14.80;75.70
74101;DHT22;62462;52.530;21.682;2023-05-19T07:09:56;14.90;75.80
74101;DHT22;62462;52.530;21.682;2023-05-19T07:12:21;15.00;75.70
74101;DHT22;62462;52.530;21.682;2023-05-19T07:14:47;15.00;75.50
74101;DHT22;62462;52.530;21.682;2023-05-19T07:17:13;15.10;75.20
74101;DHT22;62462;52.530;21.682;2023-05-19T07:19:39;15.10;74.80
74101;DHT22;62462;52.530;21.682;2023-05-19T07:22:06;15.10;74.60
74101;DHT22;62462;52.530;21.682;2023-05-19T07:24:32;15.10;74.60
74101;DHT22;62462;52.530;21.682;2023-05-19T07:26:57;15.20;74.40
74101;DHT22;62462;52.530;21.682;2023-05-19T07:29:23;15.20;74.50
74101;DHT22;62462;52.530;21.682;2023-05-19T07:31:49;15.30;74.20
74101;DHT22;62462;52.530;21.682;2023-05-19T07:34:19;15.40;74.20
74101;DHT22;62462;52.530;21.682;2023-05-19T07:36:46;15.50;74.20
74101;DHT22;62462;52.530;21.682;2023-05-19T07:39:13;15.50;73.70
74101;DHT22;62462;52.530;21.682;2023-05-19T07:41:38;15.50;73.20
74101;DHT22;62462;52.530;21.682;2023-05-19T07:44:04;15.50;72.80
74101;DHT22;62462;52.530;21.682;2023-05-19T07:46:35;15.40;72.40
74101;DHT22;62462;52.530;21.682;2023-05-19T07:49:02;15.40;72.60
74101;DHT22;62462;52.530;21.682;2023-05-19T07:51:28;15.40;73.00
74101;DHT22;62462;52.530;21.682;2023-05-19T07:53:54;15.40;72.80
74101;DHT22;62462;52.530;21.682;2023-05-19T07:56:19;15.40;72.10
74101;DHT22;62462;52.530;21.682;2023-05-19T07:58:46;15.40;72.20
74101;DHT22;62462;52.530;21.682;2023-05-19T08:01:12;15.40;71.80
74101;DHT22;62462;52.530;21.682;2023-05-19T08:03:37;15.40;71.90
74101;DHT22;62462;52.530;21.682;2023-05-19T08:06:03;15.40;72.10
74101;DHT22;62462;52.530;21.682;2023-05-19T08:08:29;15.40;73.10
74101;DHT22;62462;52.530;21.682;2023-05-19T08:10:55;15.50;72.40
74101;DHT22;62462;52.530;21.682;2023-05-19T08:13:20;15.50;72.20
74101;DHT22;62462;52.530;21.682;2023-05-19T08:15:46;15.60;72.20
74101;DHT22;62462;52.530;21.682;2023-05-19T08:18:12;15.60;72.00
74101;DHT22;62462;52.530;21.682;2023-05-19T08:20:38;15.60;71.40
74101;DHT22;62462;52.530;21.682;2023-05-19T08:23:03;15.60;71.70
74101;DHT22;62462;52.530;21.682;2023-05-19T08:25:29;15.60;71.40
74101;DHT22;62462;52.530;21.682;2023-05-19T08:27:55;15.60;71.30
74101;DHT22;62462;52.530;21.682;2023-05-19T08:30:21;15.60;71.30
74101;DHT22;62462;52.530;21.682;2023-05-19T08:32:47;15.60;71.20
74101;DHT22;62462;52.530;21.682;2023-05-19T08:35:13;15.60;71.10
74101;DHT22;62462;52.530;21.682;2023-05-19T08:37:39;15.70;71.20
74101;DHT22;62462;52.530;21.682;2023-05-19T08:40:06;15.60;70.90
74101;DHT22;62462;52.530;21.682;2023-05-19T08:42:33;15.60;70.90
74101;DHT22;62462;52.530;21.682;2023-05-19T08:45:00;15.60;70.90
74101;DHT22;62462;52.530;21.682;2023-05-19T08:47:26;15.60;71.10
74101;DHT22;62462;52.530;21.682;2023-05-19T08:49:57;15.70;71.30
74101;DHT22;62462;52.530;21.682;2023-05-19T08:53:13;15.70;70.60
74101;DHT22;62462;52.530;21.682;2023-05-19T08:55:35;15.80;70.70
74101;DHT22;62462;52.530;21.682;2023-05-19T08:58:06;15.80;70.70
74101;DHT22;62462;52.530;21.682;2023-05-19T09:00:33;15.90;70.50
74101;DHT22;62462;52.530;21.682;2023-05-19T09:02:59;15.90;70.60
74101;DHT22;62462;52.530;21.682;2023-05-19T09:05:25;15.90;70.20
74101;DHT22;62462;52.530;21.682;2023-05-19T09:07:51;15.90;70.10
74101;DHT22;62462;52.530;21.682;2023-05-19T09:10:17;15.80;70.00
74101;DHT22;62462;52.530;21.682;2023-05-19T09:12:44;15.80;69.80
74101;DHT22;62462;52.530;21.682;2023-05-19T09:15:10;15.80;70.00
74101;DHT22;62462;52.530;21.682;2023-05-19T09:17:37;15.80;69.70
74101;DHT22;62462;52.530;21.682;2023-05-19T09:20:04;15.70;69.90
74101;DHT22;62462;52.530;21.682;2023-05-19T09:22:43;15.80;70.30
74101;DHT22;62462;52.530;21.682;2023-05-19T09:25:20;15.80;70.60
74101;DHT22;62462;52.530;21.682;2023-05-19T09:27:47;15.80;70.20
74101;DHT22;62462;52.530;21.682;2023-05-19T09:30:15;15.90;70.00
74101;DHT22;62462;52.530;21.682;2023-05-19T09:32:41;15.90;69.80
74101;DHT22;62462;52.530;21.682;2023-05-19T09:35:07;16.00;70.00
74101;DHT22;62462;52.530;21.682;2023-05-19T09:37:33;16.10;70.20
74101;DHT22;62462;52.530;21.682;2023-05-19T09:39:59;16.10;69.80
74101;DHT22;62462;52.530;21.682;2023-05-19T09:42:25;16.20;69.90
74101;DHT22;62462;52.530;21.682;2023-05-19T09:44:59;16.20;69.60
74101;DHT22;62462;52.530;21.682;2023-05-19T09:47:25;16.10;69.50
74101;DHT22;62462;52.530;21.682;2023-05-19T09:49:52;16.10;69.90
74101;DHT22;62462;52.530;21.682;2023-05-19T09:52:18;16.10;70.00
74101;DHT22;62462;52.530;21.682;2023-05-19T09:54:46;16.20;70.10
74101;DHT22;62462;52.530;21.682;2023-05-19T09:57:12;16.30;70.10
74101;DHT22;62462;52.530;21.682;2023-05-19T10:06:22;16.30;69.20
74101;DHT22;62462;52.530;21.682;2023-05-19T10:08:49;16.40;69.40
74101;DHT22;62462;52.530;21.682;2023-05-19T10:11:16;16.30;69.60
74101;DHT22;62462;52.530;21.682;2023-05-19T10:13:44;16.40;69.50
74101;DHT22;62462;52.530;21.682;2023-05-19T10:16:10;16.40;69.60
74101;DHT22;62462;52.530;21.682;2023-05-19T10:18:37;16.40;69.50
74101;DHT22;62462;52.530;21.682;2023-05-19T10:21:02;16.40;69.30
74101;DHT22;62462;52.530;21.682;2023-05-19T10:23:28;16.40;68.90
74101;DHT22;62462;52.530;21.682;2023-05-19T10:25:56;16.30;69.00
74101;DHT22;62462;52.530;21.682;2023-05-19T10:28:33;16.30;68.70
74101;DHT22;62462;52.530;21.682;2023-05-19T10:31:00;16.20;69.10
74101;DHT22;62462;52.530;21.682;2023-05-19T10:36:45;16.30;69.80
74101;DHT22;62462;52.530;21.682;2023-05-19T10:39:23;16.40;69.50
74101;DHT22;62462;52.530;21.682;2023-05-19T10:41:59;16.40;68.70
74101;DHT22;62462;52.530;21.682;2023-05-19T10:47:25;16.50;68.90
74101;DHT22;62462;52.530;21.682;2023-05-19T10:49:54;16.50;68.80
74101;DHT22;62462;52.530;21.682;2023-05-19T10:52:23;16.50;67.90
74101;DHT22;62462;52.530;21.682;2023-05-19T10:54:54;16.50;68.30
74101;DHT22;62462;52.530;21.682;2023-05-19T10:57:26;16.50;68.90
74101;DHT22;62462;52.530;21.682;2023-05-19T10:59:54;16.60;68.90
74101;DHT22;62462;52.530;21.682;2023-05-19T11:02:51;16.60;68.70
74101;DHT22;62462;52.530;21.682;2023-05-19T11:05:27;16.60;68.60
74101;DHT22;62462;52.530;21.682;2023-05-19T11:07:58;16.70;68.40
74101;DHT22;62462;52.530;21.682;2023-05-19T11:10:31;16.70;68.30
74101;DHT22;62462;52.530;21.682;2023-05-19T11:12:57;16.70;68.10
74101;DHT22;62462;52.530;21.682;2023-05-19T11:15:26;16.70;68.00
74101;DHT22;62462;52.530;21.682;2023-05-19T11:17:52;16.70;68.50
74101;DHT22;62462;52.530;21.682;2023-05-19T11:20:26;16.70;68.70
74101;DHT22;62462;52.530;21.682;2023-05-19T11:23:05;16.70;69.00
74101;DHT22;62462;52.530;21.682;2023-05-19T11:25:48;16.80;69.10
74101;DHT22;62462;52.530;21.682;2023-05-19T11:28:15;16.90;69.10
74101;DHT22;62462;52.530;21.682;2023-05-19T11:30:44;16.90;69.00
74101;DHT22;62462;52.530;21.682;2023-05-19T11:33:11;17.00;68.90
74101;DHT22;62462;52.530;21.682;2023-05-19T11:35:38;17.00;68.30
74101;DHT22;62462;52.530;21.682;2023-05-19T11:38:05;17.00;68.00
74101;DHT22;62462;52.530;21.682;2023-05-19T11:40:31;17.00;67.90
74101;DHT22;62462;52.530;21.682;2023-05-19T11:42:57;17.00;68.20
74101;DHT22;62462;52.530;21.682;2023-05-19T11:45:24;17.00;68.30
74101;DHT22;62462;52.530;21.682;2023-05-19T11:47:50;17.00;68.70
74101;DHT22;62462;52.530;21.682;2023-05-19T11:50:16;17.10;68.80
74101;DHT22;62462;52.530;21.682;2023-05-19T11:52:46;17.10;68.60
74101;DHT22;62462;52.530;21.682;2023-05-19T11:55:15;17.10;68.40
74101;DHT22;62462;52.530;21.682;2023-05-19T11:57:59;17.20;68.40
74101;DHT22;62462;52.530;21.682;2023-05-19T12:00:30;17.10;67.60
74101;DHT22;62462;52.530;21.682;2023-05-19T12:03:01;17.10;67.10
74101;DHT22;62462;52.530;21.682;2023-05-19T12:05:27;17.10;67.40
74101;DHT22;62462;52.530;21.682;2023-05-19T12:07:53;17.10;67.80
74101;DHT22;62462;52.530;21.682;2023-05-19T12:10:30;17.10;67.90
74101;DHT22;62462;52.530;21.682;2023-05-19T12:12:56;17.10;68.00
74101;DHT22;62462;52.530;21.682;2023-05-19T12:15:23;17.20;67.80
74101;DHT22;62462;52.530;21.682;2023-05-19T12:17:57;17.10;67.50
74101;DHT22;62462;52.530;21.682;2023-05-19T12:20:24;17.10;67.90
74101;DHT22;62462;52.530;21.682;2023-05-19T12:22:53;17.10;68.00
74101;DHT22;62462;52.530;21.682;2023-05-19T12:25:19;17.10;68.00
74101;DHT22;62462;52.530;21.682;2023-05-19T12:27:45;17.00;68.30
74101;DHT22;62462;52.530;21.682;2023-05-19T12:30:13;17.00;68.10
74101;DHT22;62462;52.530;21.682;2023-05-19T12:32:38;17.00;68.50
74101;DHT22;62462;52.530;21.682;2023-05-19T12:35:05;17.00;68.40
74101;DHT22;62462;52.530;21.682;2023-05-19T12:37:32;17.00;68.30
74101;DHT22;62462;52.530;21.682;2023-05-19T12:39:59;17.00;68.50
74101;DHT22;62462;52.530;21.682;2023-05-19T12:42:28;17.00;68.60
74101;DHT22;62462;52.530;21.682;2023-05-19T12:44:57;17.10;68.80
74101;DHT22;62462;52.530;21.682;2023-05-19T12:47:34;17.10;68.80
74101;DHT22;62462;52.530;21.682;2023-05-19T12:50:07;17.20;68.70
74101;DHT22;62462;52.530;21.682;2023-05-19T12:52:44;17.30;68.50
74101;DHT22;62462;52.530;21.682;2023-05-19T12:55:10;17.20;66.90
74101;DHT22;62462;52.530;21.682;2023-05-19T12:57:37;17.20;67.70
74101;DHT22;62462;52.530;21.682;2023-05-19T13:00:17;17.30;68.00
74101;DHT22;62462;52.530;21.682;2023-05-19T13:03:01;17.30;68.00
74101;DHT22;62462;52.530;21.682;2023-05-19T13:05:35;17.30;68.10
74101;DHT22;62462;52.530;21.682;2023-05-19T13:08:08;17.40;68.10
74101;DHT22;62462;52.530;21.682;2023-05-19T13:10:36;17.50;68.40
74101;DHT22;62462;52.530;21.682;2023-05-19T13:13:02;17.60;68.30
74101;DHT22;62462;52.530;21.682;2023-05-19T13:15:30;17.60;68.00
74101;DHT22;62462;52.530;21.682;2023-05-19T13:17:59;17.70;67.80
74101;DHT22;62462;52.530;21.682;2023-05-19T13:20:26;17.70;67.70
74101;DHT22;62462;52.530;21.682;2023-05-19T13:22:52;17.60;67.70
74101;DHT22;62462;52.530;21.682;2023-05-19T13:25:18;17.70;67.90
74101;DHT22;62462;52.530;21.682;2023-05-19T13:27:44;17.70;67.70
74101;DHT22;62462;52.530;21.682;2023-05-19T13:30:11;17.70;67.70
74101;DHT22;62462;52.530;21.682;2023-05-19T13:32:37;17.80;67.80
74101;DHT22;62462;52.530;21.682;2023-05-19T13:35:03;17.80;67.70
74101;DHT22;62462;52.530;21.682;2023-05-19T13:37:28;17.80;67.40
74101;DHT22;62462;52.530;21.682;2023-05-19T13:39:55;17.90;67.50
74101;DHT22;62462;52.530;21.682;2023-05-19T13:42:22;17.90;67.50
74101;DHT22;62462;52.530;21.682;2023-05-19T13:44:48;17.90;67.70
74101;DHT22;62462;52.530;21.682;2023-05-19T13:47:13;17.90;67.80
74101;DHT22;62462;52.530;21.682;2023-05-19T13:49:40;17.90;67.40
74101;DHT22;62462;52.530;21.682;2023-05-19T13:52:06;17.80;67.10
74101;DHT22;62462;52.530;21.682;2023-05-19T13:54:32;17.80;67.10
74101;DHT22;62462;52.530;21.682;2023-05-19T13:56:58;17.80;67.40
74101;DHT22;62462;52.530;21.682;2023-05-19T13:59:25;17.80;67.60
74101;DHT22;62462;52.530;21.682;2023-05-19T14:01:50;17.80;67.80
74101;DHT22;62462;52.530;21.682;2023-05-19T14:04:17;17.80;67.70
74101;DHT22;62462;52.530;21.682;2023-05-19T14:06:44;17.80;67.70
74101;DHT22;62462;52.530;21.682;2023-05-19T14:09:10;17.80;66.90
74101;DHT22;62462;52.530;21.682;2023-05-19T14:11:35;17.80;67.30
74101;DHT22;62462;52.530;21.682;2023-05-19T14:14:01;17.80;67.10
74101;DHT22;62462;52.530;21.682;2023-05-19T14:16:30;17.80;67.50
74101;DHT22;62462;52.530;21.682;2023-05-19T14:18:56;17.80;67.40
74101;DHT22;62462;52.530;21.682;2023-05-19T14:21:22;17.90;67.40
74101;DHT22;62462;52.530;21.682;2023-05-19T14:23:47;17.90;67.40
74101;DHT22;62462;52.530;21.682;2023-05-19T14:26:13;17.90;67.30
74101;DHT22;62462;52.530;21.682;2023-05-19T14:28:39;17.80;67.00
74101;DHT22;62462;52.530;21.682;2023-05-19T14:31:09;17.80;67.20
74101;DHT22;62462;52.530;21.682;2023-05-19T14:33:35;17.80;67.40
74101;DHT22;62462;52.530;21.682;2023-05-19T14:36:01;17.80;67.40
74101;DHT22;62462;52.530;21.682;2023-05-19T14:38:30;17.80;67.30
74101;DHT22;62462;52.530;21.682;2023-05-19T14:40:56;17.80;67.50
74101;DHT22;62462;52.530;21.682;2023-05-19T14:43:22;17.80;67.60
74101;DHT22;62462;52.530;21.682;2023-05-19T14:45:48;17.80;67.60
74101;DHT22;62462;52.530;21.682;2023-05-19T14:48:14;17.80;67.60
74101;DHT22;62462;52.530;21.682;2023-05-19T14:50:40;17.80;67.50
74101;DHT22;62462;52.530;21.682;2023-05-19T14:53:06;17.80;67.50
74101;DHT22;62462;52.530;21.682;2023-05-19T14:55:32;17.80;67.50
74101;DHT22;62462;52.530;21.682;2023-05-19T14:57:58;17.80;67.60
74101;DHT22;62462;52.530;21.682;2023-05-19T15:00:23;17.80;67.70
74101;DHT22;62462;52.530;21.682;2023-05-19T15:02:51;17.70;67.40
74101;DHT22;62462;52.530;21.682;2023-05-19T15:05:17;17.70;67.60
74101;DHT22;62462;52.530;21.682;2023-05-19T15:07:43;17.70;67.90
74101;DHT22;62462;52.530;21.682;2023-05-19T15:10:09;17.70;67.80
74101;DHT22;62462;52.530;21.682;2023-05-19T15:12:34;17.60;67.80
74101;DHT22;62462;52.530;21.682;2023-05-19T15:15:00;17.60;68.00
74101;DHT22;62462;52.530;21.682;2023-05-19T15:17:26;17.60;68.00
74101;DHT22;62462;52.530;21.682;2023-05-19T15:19:52;17.60;67.70
74101;DHT22;62462;52.530;21.682;2023-05-19T15:22:18;17.50;67.90
74101;DHT22;62462;52.530;21.682;2023-05-19T15:24:43;17.50;68.10
74101;DHT22;62462;52.530;21.682;2023-05-19T15:27:09;17.50;68.20
74101;DHT22;62462;52.530;21.682;2023-05-19T15:29:35;17.50;68.30
74101;DHT22;62462;52.530;21.682;2023-05-19T15:32:01;17.50;68.40
74101;DHT22;62462;52.530;21.682;2023-05-19T15:34:27;17.50;68.50
74101;DHT22;62462;52.530;21.682;2023-05-19T15:36:52;17.50;68.60
74101;DHT22;62462;52.530;21.682;2023-05-19T15:39:19;17.50;68.50
74101;DHT22;62462;52.530;21.682;2023-05-19T15:41:45;17.50;68.60
74101;DHT22;62462;52.530;21.682;2023-05-19T15:44:11;17.50;68.60
74101;DHT22;62462;52.530;21.682;2023-05-19T15:46:37;17.50;68.70
74101;DHT22;62462;52.530;21.682;2023-05-19T15:49:02;17.50;68.80
74101;DHT22;62462;52.530;21.682;2023-05-19T15:51:28;17.50;68.70